sensor_id;sensor_type;location;lat;lon;timestamp;pressure;altitude;pressure_sealevel;temperature;humidity
43450;BME280;29041;42.266;23.110;2022-10-30T00:00:29;96587.22;;;10.14;66.84
43450;BME280;29041;42.266;23.110;2022-10-30T00:03:16;96591.59;;;9.82;67.80
43450;BME280;29041;42.266;23.110;2022-10-30T00:06:04;96559.00;;;9.61;67.91
43450;BME280;29041;42.266;23.110;2022-10-30T00:08:52;96579.00;;;9.49;69.56
43450;BME280;29041;42.266;23.110;2022-10-30T00:11:39;96568.31;;;9.16;70.46
43450;BME280;29041;42.266;23.110;2022-10-30T00:14:26;96582.59;;;9.45;69.93
43450;BME280;29041;42.266;23.110;2022-10-30T00:17:15;96585.13;;;10.67;64.99
43450;BME280;29041;42.266;23.110;2022-10-30T00:20:04;96573.97;;;10.73;64.69
43450;BME280;29041;42.266;23.110;2022-10-30T00:22:51;96569.41;;;9.62;69.76
43450;BME280;29041;42.266;23.110;2022-10-30T00:25:38;96571.50;;;9.65;69.15
43450;BME280;29041;42.266;23.110;2022-10-30T00:28:26;96576.81;;;9.38;70.61
43450;BME280;29041;42.266;23.110;2022-10-30T00:31:13;96554.75;;;9.27;71.20
43450;BME280;29041;42.266;23.110;2022-10-30T00:34:02;96564.16;;;9.57;70.73
43450;BME280;29041;42.266;23.110;2022-10-30T00:36:49;96550.19;;;9.27;71.39
43450;BME280;29041;42.266;23.110;2022-10-30T00:39:36;96551.31;;;9.40;70.33
43450;BME280;29041;42.266;23.110;2022-10-30T00:42:28;96539.78;;;9.40;70.21
43450;BME280;29041;42.266;23.110;2022-10-30T00:45:16;96554.63;;;9.51;69.28
43450;BME280;29041;42.266;23.110;2022-10-30T00:48:04;96555.88;;;9.40;68.48
43450;BME280;29041;42.266;23.110;2022-10-30T00:50:54;96547.28;;;8.71;70.93
43450;BME280;29041;42.266;23.110;2022-10-30T00:53:42;96546.28;;;8.48;71.10
43450;BME280;29041;42.266;23.110;2022-10-30T00:56:33;96549.41;;;8.75;70.30
43450;BME280;29041;42.266;23.110;2022-10-30T00:59:24;96523.94;;;8.58;69.46
43450;BME280;29041;42.266;23.110;2022-10-30T01:02:15;96513.88;;;8.50;70.15
43450;BME280;29041;42.266;23.110;2022-10-30T01:05:03;96523.22;;;8.28;71.15
43450;BME280;29041;42.266;23.110;2022-10-30T01:07:52;96513.13;;;8.44;71.64
43450;BME280;29041;42.266;23.110;2022-10-30T01:10:40;96548.63;;;8.74;70.90
43450;BME280;29041;42.266;23.110;2022-10-30T01:13:31;96546.72;;;8.55;71.77
43450;BME280;29041;42.266;23.110;2022-10-30T01:16:46;96539.63;;;8.84;71.16
43450;BME280;29041;42.266;23.110;2022-10-30T01:19:47;96537.47;;;8.48;71.49
43450;BME280;29041;42.266;23.110;2022-10-30T01:22:53;96524.97;;;8.38;73.05
43450;BME280;29041;42.266;23.110;2022-10-30T01:25:51;96518.75;;;8.42;72.94
43450;BME280;29041;42.266;23.110;2022-10-30T01:28:54;96517.81;;;8.14;74.24
43450;BME280;29041;42.266;23.110;2022-10-30T01:31:58;96528.13;;;8.64;73.49
43450;BME280;29041;42.266;23.110;2022-10-30T01:34:58;96521.78;;;8.17;75.54
43450;BME280;29041;42.266;23.110;2022-10-30T01:37:55;96479.59;;;7.89;75.55
43450;BME280;29041;42.266;23.110;2022-10-30T01:40:44;96525.94;;;8.66;75.26
43450;BME280;29041;42.266;23.110;2022-10-30T01:43:31;96516.28;;;8.70;74.86
43450;BME280;29041;42.266;23.110;2022-10-30T01:46:38;96503.94;;;8.31;75.18
43450;BME280;29041;42.266;23.110;2022-10-30T01:49:46;96510.50;;;8.20;76.37
43450;BME280;29041;42.266;23.110;2022-10-30T01:52:46;96495.19;;;8.25;75.53
43450;BME280;29041;42.266;23.110;2022-10-30T01:55:45;96459.84;;;7.66;76.61
43450;BME280;29041;42.266;23.110;2022-10-30T01:58:40;96509.78;;;8.91;72.38
43450;BME280;29041;42.266;23.110;2022-10-30T02:02:07;96500.22;;;8.08;75.70
43450;BME280;29041;42.266;23.110;2022-10-30T02:04:56;96503.47;;;8.48;73.01
43450;BME280;29041;42.266;23.110;2022-10-30T02:08:12;96504.38;;;7.76;76.00
43450;BME280;29041;42.266;23.110;2022-10-30T02:11:24;96505.72;;;7.73;76.48
43450;BME280;29041;42.266;23.110;2022-10-30T02:14:25;96505.84;;;7.63;76.39
43450;BME280;29041;42.266;23.110;2022-10-30T02:17:31;96497.41;;;7.75;76.36
43450;BME280;29041;42.266;23.110;2022-10-30T02:20:29;96503.72;;;7.60;77.03
43450;BME280;29041;42.266;23.110;2022-10-30T02:23:17;96509.72;;;7.52;78.01
43450;BME280;29041;42.266;23.110;2022-10-30T02:26:05;96491.25;;;7.26;79.17
43450;BME280;29041;42.266;23.110;2022-10-30T02:28:52;96507.19;;;7.60;77.62
43450;BME280;29041;42.266;23.110;2022-10-30T02:31:40;96504.25;;;7.62;78.05
43450;BME280;29041;42.266;23.110;2022-10-30T02:34:27;96511.50;;;7.32;78.42
43450;BME280;29041;42.266;23.110;2022-10-30T02:37:16;96486.34;;;7.09;78.18
43450;BME280;29041;42.266;23.110;2022-10-30T02:40:05;96496.75;;;7.64;76.89
43450;BME280;29041;42.266;23.110;2022-10-30T02:42:54;96506.09;;;7.37;76.95
43450;BME280;29041;42.266;23.110;2022-10-30T02:45:41;96500.81;;;7.56;76.01
43450;BME280;29041;42.266;23.110;2022-10-30T02:48:30;96496.44;;;7.41;76.49
43450;BME280;29041;42.266;23.110;2022-10-30T02:51:17;96510.31;;;7.14;77.74
43450;BME280;29041;42.266;23.110;2022-10-30T02:54:06;96515.38;;;7.93;75.26
43450;BME280;29041;42.266;23.110;2022-10-30T02:56:54;96501.16;;;7.50;74.78
43450;BME280;29041;42.266;23.110;2022-10-30T02:59:41;96498.75;;;6.94;77.20
43450;BME280;29041;42.266;23.110;2022-10-30T03:02:28;96500.13;;;6.87;77.98
43450;BME280;29041;42.266;23.110;2022-10-30T03:05:16;96518.47;;;7.28;77.42
43450;BME280;29041;42.266;23.110;2022-10-30T03:08:03;96483.00;;;6.93;77.17
43450;BME280;29041;42.266;23.110;2022-10-30T03:11:00;96457.06;;;6.69;76.72
43450;BME280;29041;42.266;23.110;2022-10-30T03:13:51;96503.56;;;6.58;77.76
43450;BME280;29041;42.266;23.110;2022-10-30T03:16:49;96528.75;;;6.36;79.24
43450;BME280;29041;42.266;23.110;2022-10-30T03:19:54;96522.19;;;6.18;79.70
43450;BME280;29041;42.266;23.110;2022-10-30T03:22:42;96534.75;;;6.12;80.12
43450;BME280;29041;42.266;23.110;2022-10-30T03:25:32;96469.34;;;5.70;80.95
43450;BME280;29041;42.266;23.110;2022-10-30T03:28:39;96505.47;;;6.02;80.83
43450;BME280;29041;42.266;23.110;2022-10-30T03:31:26;96494.59;;;5.78;81.22
43450;BME280;29041;42.266;23.110;2022-10-30T03:34:16;96485.47;;;6.49;78.46
43450;BME280;29041;42.266;23.110;2022-10-30T03:37:03;96520.28;;;6.74;77.65
43450;BME280;29041;42.266;23.110;2022-10-30T03:39:51;96506.50;;;6.56;77.87
43450;BME280;29041;42.266;23.110;2022-10-30T03:42:38;96512.66;;;6.51;78.41
43450;BME280;29041;42.266;23.110;2022-10-30T03:45:27;96511.16;;;6.80;78.21
43450;BME280;29041;42.266;23.110;2022-10-30T03:48:15;96522.81;;;6.49;78.82
43450;BME280;29041;42.266;23.110;2022-10-30T03:51:03;96531.38;;;6.41;80.08
43450;BME280;29041;42.266;23.110;2022-10-30T03:53:50;96476.22;;;6.37;79.78
43450;BME280;29041;42.266;23.110;2022-10-30T03:56:37;96521.78;;;6.45;79.48
43450;BME280;29041;42.266;23.110;2022-10-30T03:59:26;96507.84;;;6.54;79.89
43450;BME280;29041;42.266;23.110;2022-10-30T04:02:21;96496.75;;;6.36;80.29
43450;BME280;29041;42.266;23.110;2022-10-30T04:08:53;96440.25;;;5.79;80.42
43450;BME280;29041;42.266;23.110;2022-10-30T04:12:00;96493.63;;;6.24;80.13
43450;BME280;29041;42.266;23.110;2022-10-30T04:15:11;96484.81;;;6.28;79.14
43450;BME280;29041;42.266;23.110;2022-10-30T04:18:25;96488.38;;;6.08;80.46
43450;BME280;29041;42.266;23.110;2022-10-30T04:21:12;96490.31;;;5.87;81.53
43450;BME280;29041;42.266;23.110;2022-10-30T04:23:59;96501.72;;;5.98;81.28
43450;BME280;29041;42.266;23.110;2022-10-30T04:26:46;96491.19;;;5.67;81.83
43450;BME280;29041;42.266;23.110;2022-10-30T04:29:34;96521.16;;;6.09;81.93
43450;BME280;29041;42.266;23.110;2022-10-30T04:32:23;96530.25;;;6.02;82.68
43450;BME280;29041;42.266;23.110;2022-10-30T04:35:13;96524.56;;;6.19;80.75
43450;BME280;29041;42.266;23.110;2022-10-30T04:38:02;96477.31;;;6.30;79.95
43450;BME280;29041;42.266;23.110;2022-10-30T04:40:49;96538.72;;;6.20;80.70
43450;BME280;29041;42.266;23.110;2022-10-30T04:43:37;96495.38;;;5.83;82.48
43450;BME280;29041;42.266;23.110;2022-10-30T04:46:24;96498.53;;;6.06;82.28
43450;BME280;29041;42.266;23.110;2022-10-30T04:49:11;96504.63;;;6.57;80.92
43450;BME280;29041;42.266;23.110;2022-10-30T04:52:00;96529.19;;;7.23;78.07
43450;BME280;29041;42.266;23.110;2022-10-30T04:54:47;96470.78;;;6.07;80.29
43450;BME280;29041;42.266;23.110;2022-10-30T04:57:35;96529.81;;;6.40;80.32
43450;BME280;29041;42.266;23.110;2022-10-30T05:00:23;96521.06;;;6.29;80.16
43450;BME280;29041;42.266;23.110;2022-10-30T05:03:16;96490.22;;;6.13;78.79
43450;BME280;29041;42.266;23.110;2022-10-30T05:06:06;96544.34;;;6.13;80.62
43450;BME280;29041;42.266;23.110;2022-10-30T05:08:55;96470.94;;;5.71;78.87
43450;BME280;29041;42.266;23.110;2022-10-30T05:11:42;96498.75;;;5.34;82.65
43450;BME280;29041;42.266;23.110;2022-10-30T05:14:30;96531.19;;;5.56;81.36
43450;BME280;29041;42.266;23.110;2022-10-30T05:17:17;96512.56;;;5.46;82.13
43450;BME280;29041;42.266;23.110;2022-10-30T05:20:10;96540.34;;;6.11;80.12
43450;BME280;29041;42.266;23.110;2022-10-30T05:22:58;96551.38;;;5.68;81.71
43450;BME280;29041;42.266;23.110;2022-10-30T05:25:47;96517.50;;;5.89;80.00
43450;BME280;29041;42.266;23.110;2022-10-30T05:28:34;96514.19;;;5.42;81.43
43450;BME280;29041;42.266;23.110;2022-10-30T05:31:21;96531.19;;;5.51;82.06
43450;BME280;29041;42.266;23.110;2022-10-30T05:34:08;96558.66;;;5.31;84.29
43450;BME280;29041;42.266;23.110;2022-10-30T05:36:58;96517.94;;;5.15;83.48
43450;BME280;29041;42.266;23.110;2022-10-30T05:39:46;96521.03;;;5.64;81.22
43450;BME280;29041;42.266;23.110;2022-10-30T05:42:34;96526.66;;;5.57;81.38
43450;BME280;29041;42.266;23.110;2022-10-30T05:45:21;96560.47;;;5.51;82.06
43450;BME280;29041;42.266;23.110;2022-10-30T05:48:09;96560.91;;;5.95;81.39
43450;BME280;29041;42.266;23.110;2022-10-30T05:50:56;96572.31;;;8.18;71.55
43450;BME280;29041;42.266;23.110;2022-10-30T05:53:46;96579.44;;;11.05;58.67
43450;BME280;29041;42.266;23.110;2022-10-30T05:56:34;96547.22;;;12.40;53.30
43450;BME280;29041;42.266;23.110;2022-10-30T05:59:23;96565.00;;;13.11;50.94
43450;BME280;29041;42.266;23.110;2022-10-30T06:02:10;96566.38;;;13.61;49.62
43450;BME280;29041;42.266;23.110;2022-10-30T06:04:57;96536.16;;;13.02;50.20
43450;BME280;29041;42.266;23.110;2022-10-30T06:07:45;96565.56;;;13.69;49.42
43450;BME280;29041;42.266;23.110;2022-10-30T06:10:32;96547.47;;;15.11;45.36
43450;BME280;29041;42.266;23.110;2022-10-30T06:13:20;96561.72;;;14.18;46.53
43450;BME280;29041;42.266;23.110;2022-10-30T06:16:08;96550.56;;;14.28;47.21
43450;BME280;29041;42.266;23.110;2022-10-30T06:18:56;96560.81;;;14.35;47.46
43450;BME280;29041;42.266;23.110;2022-10-30T06:21:43;96550.38;;;14.84;45.88
43450;BME280;29041;42.266;23.110;2022-10-30T06:24:30;96544.25;;;15.63;44.06
43450;BME280;29041;42.266;23.110;2022-10-30T06:27:18;96524.91;;;15.98;42.03
43450;BME280;29041;42.266;23.110;2022-10-30T06:30:06;96531.66;;;16.05;43.27
43450;BME280;29041;42.266;23.110;2022-10-30T06:32:57;96542.03;;;16.02;43.52
43450;BME280;29041;42.266;23.110;2022-10-30T06:35:46;96529.75;;;16.30;42.84
43450;BME280;29041;42.266;23.110;2022-10-30T06:38:34;96517.41;;;15.70;43.17
43450;BME280;29041;42.266;23.110;2022-10-30T06:41:21;96519.59;;;15.90;43.74
43450;BME280;29041;42.266;23.110;2022-10-30T06:44:08;96520.22;;;15.74;43.77
43450;BME280;29041;42.266;23.110;2022-10-30T06:46:55;96517.56;;;16.11;42.79
43450;BME280;29041;42.266;23.110;2022-10-30T06:49:44;96517.97;;;17.04;41.39
43450;BME280;29041;42.266;23.110;2022-10-30T06:52:31;96523.34;;;16.75;42.23
43450;BME280;29041;42.266;23.110;2022-10-30T06:55:19;96527.72;;;16.02;43.51
43450;BME280;29041;42.266;23.110;2022-10-30T06:58:06;96533.47;;;16.25;42.56
43450;BME280;29041;42.266;23.110;2022-10-30T07:00:54;96521.53;;;16.67;42.24
43450;BME280;29041;42.266;23.110;2022-10-30T07:03:41;96531.44;;;15.97;43.93
43450;BME280;29041;42.266;23.110;2022-10-30T07:06:30;96521.56;;;15.68;44.42
43450;BME280;29041;42.266;23.110;2022-10-30T07:09:17;96516.16;;;16.55;42.68
43450;BME280;29041;42.266;23.110;2022-10-30T07:12:05;96519.72;;;16.30;43.69
43450;BME280;29041;42.266;23.110;2022-10-30T07:14:53;96511.56;;;16.43;43.76
43450;BME280;29041;42.266;23.110;2022-10-30T07:17:40;96504.13;;;17.37;41.85
43450;BME280;29041;42.266;23.110;2022-10-30T07:20:33;96486.63;;;18.50;39.50
43450;BME280;29041;42.266;23.110;2022-10-30T07:23:22;96501.41;;;18.17;40.30
43450;BME280;29041;42.266;23.110;2022-10-30T07:26:09;96502.41;;;18.45;40.25
43450;BME280;29041;42.266;23.110;2022-10-30T07:28:57;96486.38;;;18.04;40.66
43450;BME280;29041;42.266;23.110;2022-10-30T07:31:45;96479.38;;;20.06;36.95
43450;BME280;29041;42.266;23.110;2022-10-30T07:34:32;96484.00;;;20.02;36.75
43450;BME280;29041;42.266;23.110;2022-10-30T07:37:20;96494.97;;;19.59;37.64
43450;BME280;29041;42.266;23.110;2022-10-30T07:40:09;96492.41;;;19.93;37.98
43450;BME280;29041;42.266;23.110;2022-10-30T07:42:57;96495.88;;;18.65;40.57
43450;BME280;29041;42.266;23.110;2022-10-30T07:45:44;96499.94;;;17.88;42.74
43450;BME280;29041;42.266;23.110;2022-10-30T07:48:32;96486.56;;;19.91;39.85
43450;BME280;29041;42.266;23.110;2022-10-30T07:51:19;96476.16;;;19.50;39.37
43450;BME280;29041;42.266;23.110;2022-10-30T07:54:07;96474.78;;;20.37;37.99
43450;BME280;29041;42.266;23.110;2022-10-30T07:56:55;96461.00;;;22.15;34.74
43450;BME280;29041;42.266;23.110;2022-10-30T07:59:43;96465.84;;;21.01;37.11
43450;BME280;29041;42.266;23.110;2022-10-30T08:02:39;96466.06;;;19.78;39.70
43450;BME280;29041;42.266;23.110;2022-10-30T08:05:29;96473.72;;;19.69;40.46
43450;BME280;29041;42.266;23.110;2022-10-30T08:08:17;96433.75;;;19.30;40.91
43450;BME280;29041;42.266;23.110;2022-10-30T08:11:05;96440.19;;;19.41;40.99
43450;BME280;29041;42.266;23.110;2022-10-30T08:13:53;96450.38;;;20.18;40.41
43450;BME280;29041;42.266;23.110;2022-10-30T08:16:40;96453.41;;;21.07;38.03
43450;BME280;29041;42.266;23.110;2022-10-30T08:19:28;96444.50;;;20.46;38.74
43450;BME280;29041;42.266;23.110;2022-10-30T08:22:15;96453.00;;;20.10;40.13
43450;BME280;29041;42.266;23.110;2022-10-30T08:25:03;96441.56;;;21.30;37.85
43450;BME280;29041;42.266;23.110;2022-10-30T08:27:51;96448.25;;;21.78;36.89
43450;BME280;29041;42.266;23.110;2022-10-30T08:30:41;96438.59;;;21.95;36.68
43450;BME280;29041;42.266;23.110;2022-10-30T08:33:28;96436.34;;;21.14;38.82
43450;BME280;29041;42.266;23.110;2022-10-30T08:36:15;96427.66;;;20.40;39.18
43450;BME280;29041;42.266;23.110;2022-10-30T08:39:02;96424.94;;;20.10;40.47
43450;BME280;29041;42.266;23.110;2022-10-30T08:41:50;96428.03;;;18.33;45.08
43450;BME280;29041;42.266;23.110;2022-10-30T08:44:37;96432.31;;;17.67;46.99
43450;BME280;29041;42.266;23.110;2022-10-30T08:47:26;96428.81;;;17.82;46.84
43450;BME280;29041;42.266;23.110;2022-10-30T08:50:15;96429.38;;;17.40;48.06
43450;BME280;29041;42.266;23.110;2022-10-30T08:53:07;96422.78;;;18.24;46.64
43450;BME280;29041;42.266;23.110;2022-10-30T08:55:54;96417.28;;;18.60;46.37
43450;BME280;29041;42.266;23.110;2022-10-30T08:58:45;96415.44;;;17.73;48.20
43450;BME280;29041;42.266;23.110;2022-10-30T09:01:33;96404.00;;;19.17;44.67
43450;BME280;29041;42.266;23.110;2022-10-30T09:04:22;96406.47;;;19.26;45.10
43450;BME280;29041;42.266;23.110;2022-10-30T09:07:10;96395.84;;;18.94;44.19
43450;BME280;29041;42.266;23.110;2022-10-30T09:09:57;96389.97;;;19.15;45.38
43450;BME280;29041;42.266;23.110;2022-10-30T09:12:59;96393.16;;;19.68;44.54
43450;BME280;29041;42.266;23.110;2022-10-30T09:19:00;96329.91;;;20.08;42.72
43450;BME280;29041;42.266;23.110;2022-10-30T09:21:49;96346.19;;;20.69;41.74
43450;BME280;29041;42.266;23.110;2022-10-30T09:24:37;96318.88;;;19.44;43.29
43450;BME280;29041;42.266;23.110;2022-10-30T09:27:24;96376.00;;;20.51;41.91
43450;BME280;29041;42.266;23.110;2022-10-30T09:30:13;96342.63;;;20.65;41.38
43450;BME280;29041;42.266;23.110;2022-10-30T09:33:00;96339.72;;;20.47;41.21
43450;BME280;29041;42.266;23.110;2022-10-30T09:35:48;96341.16;;;20.07;42.42
43450;BME280;29041;42.266;23.110;2022-10-30T09:38:36;96351.94;;;20.95;41.77
43450;BME280;29041;42.266;23.110;2022-10-30T09:41:39;96346.47;;;20.95;41.54
43450;BME280;29041;42.266;23.110;2022-10-30T09:44:38;96329.91;;;21.18;40.88
43450;BME280;29041;42.266;23.110;2022-10-30T09:47:31;96323.69;;;21.77;40.02
43450;BME280;29041;42.266;23.110;2022-10-30T09:50:24;96331.16;;;21.31;40.60
43450;BME280;29041;42.266;23.110;2022-10-30T09:53:16;96325.59;;;22.50;38.56
43450;BME280;29041;42.266;23.110;2022-10-30T09:56:14;96316.72;;;21.86;39.29
43450;BME280;29041;42.266;23.110;2022-10-30T09:59:16;96312.84;;;21.87;39.47
43450;BME280;29041;42.266;23.110;2022-10-30T10:02:19;96303.28;;;22.33;38.78
43450;BME280;29041;42.266;23.110;2022-10-30T10:05:16;96283.44;;;22.69;37.93
43450;BME280;29041;42.266;23.110;2022-10-30T10:08:08;96292.03;;;22.60;38.62
43450;BME280;29041;42.266;23.110;2022-10-30T10:10:59;96286.56;;;22.57;38.44
43450;BME280;29041;42.266;23.110;2022-10-30T10:13:51;96277.59;;;22.67;37.79
43450;BME280;29041;42.266;23.110;2022-10-30T10:16:47;96274.88;;;23.36;36.96
43450;BME280;29041;42.266;23.110;2022-10-30T10:19:43;96228.72;;;22.94;35.98
43450;BME280;29041;42.266;23.110;2022-10-30T10:22:38;96288.13;;;23.63;35.86
43450;BME280;29041;42.266;23.110;2022-10-30T10:25:29;96247.44;;;23.61;35.26
43450;BME280;29041;42.266;23.110;2022-10-30T10:28:30;96240.47;;;22.84;37.17
43450;BME280;29041;42.266;23.110;2022-10-30T10:31:35;96241.59;;;23.48;36.05
43450;BME280;29041;42.266;23.110;2022-10-30T10:34:40;96267.06;;;23.41;36.91
43450;BME280;29041;42.266;23.110;2022-10-30T10:37:35;96263.50;;;23.55;36.76
43450;BME280;29041;42.266;23.110;2022-10-30T10:40:37;96259.56;;;23.56;35.92
43450;BME280;29041;42.266;23.110;2022-10-30T10:43:37;96241.06;;;24.00;35.49
43450;BME280;29041;42.266;23.110;2022-10-30T10:46:43;96246.25;;;24.54;34.20
43450;BME280;29041;42.266;23.110;2022-10-30T10:49:50;96236.75;;;23.99;35.45
43450;BME280;29041;42.266;23.110;2022-10-30T10:52:47;96233.91;;;24.84;34.33
43450;BME280;29041;42.266;23.110;2022-10-30T10:55:37;96227.56;;;24.35;34.43
43450;BME280;29041;42.266;23.110;2022-10-30T10:58:30;96186.84;;;24.82;33.11
43450;BME280;29041;42.266;23.110;2022-10-30T11:01:44;96186.16;;;24.75;33.36
43450;BME280;29041;42.266;23.110;2022-10-30T11:04:38;96182.88;;;24.34;33.88
43450;BME280;29041;42.266;23.110;2022-10-30T11:07:29;96175.75;;;25.35;32.78
43450;BME280;29041;42.266;23.110;2022-10-30T11:10:18;96174.28;;;26.27;30.69
43450;BME280;29041;42.266;23.110;2022-10-30T11:13:10;96162.63;;;26.43;29.86
43450;BME280;29041;42.266;23.110;2022-10-30T11:16:05;96164.38;;;27.28;28.88
43450;BME280;29041;42.266;23.110;2022-10-30T11:18:59;96171.34;;;27.13;28.41
43450;BME280;29041;42.266;23.110;2022-10-30T11:21:50;96179.97;;;25.05;32.20
43450;BME280;29041;42.266;23.110;2022-10-30T11:24:40;96172.75;;;26.50;28.95
43450;BME280;29041;42.266;23.110;2022-10-30T11:27:28;96153.03;;;26.27;29.07
43450;BME280;29041;42.266;23.110;2022-10-30T11:30:17;96146.97;;;28.12;26.27
43450;BME280;29041;42.266;23.110;2022-10-30T11:33:20;96140.44;;;27.25;27.94
43450;BME280;29041;42.266;23.110;2022-10-30T11:36:12;96153.81;;;26.28;28.69
43450;BME280;29041;42.266;23.110;2022-10-30T11:39:08;96141.69;;;27.81;26.55
43450;BME280;29041;42.266;23.110;2022-10-30T11:41:59;96141.69;;;27.81;27.12
43450;BME280;29041;42.266;23.110;2022-10-30T11:44:49;96132.00;;;28.79;25.31
43450;BME280;29041;42.266;23.110;2022-10-30T11:47:37;96129.50;;;29.14;23.66
43450;BME280;29041;42.266;23.110;2022-10-30T11:50:27;96130.44;;;28.78;23.75
43450;BME280;29041;42.266;23.110;2022-10-30T11:53:20;96118.69;;;28.24;25.32
43450;BME280;29041;42.266;23.110;2022-10-30T11:56:14;96132.31;;;28.31;25.61
43450;BME280;29041;42.266;23.110;2022-10-30T11:59:03;96104.72;;;28.31;25.88
43450;BME280;29041;42.266;23.110;2022-10-30T12:02:00;96124.16;;;29.07;23.38
43450;BME280;29041;42.266;23.110;2022-10-30T12:04:49;96118.88;;;28.67;24.30
43450;BME280;29041;42.266;23.110;2022-10-30T12:07:36;96115.09;;;26.15;27.36
43450;BME280;29041;42.266;23.110;2022-10-30T12:10:27;96107.28;;;27.29;25.68
43450;BME280;29041;42.266;23.110;2022-10-30T12:13:16;96108.00;;;27.53;25.50
43450;BME280;29041;42.266;23.110;2022-10-30T12:16:07;96100.00;;;27.59;25.06
43450;BME280;29041;42.266;23.110;2022-10-30T12:19:00;96092.44;;;27.63;25.12
43450;BME280;29041;42.266;23.110;2022-10-30T12:21:50;96076.91;;;26.21;26.98
43450;BME280;29041;42.266;23.110;2022-10-30T12:24:38;96075.50;;;26.09;27.30
43450;BME280;29041;42.266;23.110;2022-10-30T12:27:34;96088.84;;;26.82;26.66
43450;BME280;29041;42.266;23.110;2022-10-30T12:30:23;96081.84;;;27.61;25.22
43450;BME280;29041;42.266;23.110;2022-10-30T12:33:15;96070.88;;;27.58;24.83
43450;BME280;29041;42.266;23.110;2022-10-30T12:36:05;96084.91;;;27.63;25.62
43450;BME280;29041;42.266;23.110;2022-10-30T12:38:57;96084.91;;;26.35;26.68
43450;BME280;29041;42.266;23.110;2022-10-30T12:41:55;96079.75;;;27.65;25.38
43450;BME280;29041;42.266;23.110;2022-10-30T12:44:48;96073.53;;;27.98;24.41
43450;BME280;29041;42.266;23.110;2022-10-30T12:47:41;96063.31;;;27.42;25.23
43450;BME280;29041;42.266;23.110;2022-10-30T12:50:38;96058.31;;;28.10;24.63
43450;BME280;29041;42.266;23.110;2022-10-30T12:53:33;96078.09;;;27.88;25.93
43450;BME280;29041;42.266;23.110;2022-10-30T12:56:27;96072.03;;;27.93;24.65
43450;BME280;29041;42.266;23.110;2022-10-30T12:59:26;96056.03;;;27.31;25.01
43450;BME280;29041;42.266;23.110;2022-10-30T13:02:28;96074.69;;;27.03;25.08
43450;BME280;29041;42.266;23.110;2022-10-30T13:05:31;96054.09;;;26.20;26.41
43450;BME280;29041;42.266;23.110;2022-10-30T13:08:24;96067.25;;;27.40;24.88
43450;BME280;29041;42.266;23.110;2022-10-30T13:11:18;96059.97;;;26.46;25.34
43450;BME280;29041;42.266;23.110;2022-10-30T13:14:12;96056.75;;;27.15;25.87
43450;BME280;29041;42.266;23.110;2022-10-30T13:17:01;96045.78;;;27.12;25.09
43450;BME280;29041;42.266;23.110;2022-10-30T13:19:50;96067.72;;;26.51;25.77
43450;BME280;29041;42.266;23.110;2022-10-30T13:22:42;96067.19;;;27.64;24.92
43450;BME280;29041;42.266;23.110;2022-10-30T13:25:39;96056.03;;;27.88;24.99
43450;BME280;29041;42.266;23.110;2022-10-30T13:28:32;96066.50;;;27.60;24.39
43450;BME280;29041;42.266;23.110;2022-10-30T13:31:27;96071.56;;;27.62;25.11
43450;BME280;29041;42.266;23.110;2022-10-30T13:34:34;96066.84;;;28.32;23.82
43450;BME280;29041;42.266;23.110;2022-10-30T13:37:30;96059.78;;;27.61;23.99
43450;BME280;29041;42.266;23.110;2022-10-30T13:40:27;96066.13;;;26.78;25.50
43450;BME280;29041;42.266;23.110;2022-10-30T13:43:24;96066.06;;;27.01;25.41
43450;BME280;29041;42.266;23.110;2022-10-30T13:46:26;96068.03;;;26.06;25.79
43450;BME280;29041;42.266;23.110;2022-10-30T13:49:28;96056.19;;;26.36;25.60
43450;BME280;29041;42.266;23.110;2022-10-30T13:52:20;96073.16;;;25.80;26.26
43450;BME280;29041;42.266;23.110;2022-10-30T13:55:17;96063.13;;;26.21;25.65
43450;BME280;29041;42.266;23.110;2022-10-30T13:58:09;96068.16;;;25.40;26.21
43450;BME280;29041;42.266;23.110;2022-10-30T14:01:05;96074.50;;;25.33;26.56
43450;BME280;29041;42.266;23.110;2022-10-30T14:03:57;96051.91;;;25.80;25.78
43450;BME280;29041;42.266;23.110;2022-10-30T14:06:53;96078.53;;;26.15;25.80
43450;BME280;29041;42.266;23.110;2022-10-30T14:09:53;96068.75;;;26.13;25.76
43450;BME280;29041;42.266;23.110;2022-10-30T14:12:48;96062.59;;;26.02;25.16
43450;BME280;29041;42.266;23.110;2022-10-30T14:15:40;96061.84;;;25.43;26.29
43450;BME280;29041;42.266;23.110;2022-10-30T14:18:42;96061.66;;;25.23;26.28
43450;BME280;29041;42.266;23.110;2022-10-30T14:21:51;96080.06;;;24.50;27.52
43450;BME280;29041;42.266;23.110;2022-10-30T14:24:43;96069.94;;;24.39;28.03
43450;BME280;29041;42.266;23.110;2022-10-30T14:27:32;96073.84;;;25.22;27.64
43450;BME280;29041;42.266;23.110;2022-10-30T14:30:21;96040.03;;;25.29;27.03
43450;BME280;29041;42.266;23.110;2022-10-30T14:33:32;96066.31;;;24.95;27.80
43450;BME280;29041;42.266;23.110;2022-10-30T14:36:21;96067.97;;;24.44;27.76
43450;BME280;29041;42.266;23.110;2022-10-30T14:39:28;96062.47;;;24.44;28.70
43450;BME280;29041;42.266;23.110;2022-10-30T14:42:21;96072.56;;;24.54;28.14
43450;BME280;29041;42.266;23.110;2022-10-30T14:45:14;96072.41;;;24.76;27.92
43450;BME280;29041;42.266;23.110;2022-10-30T14:48:13;96047.19;;;23.94;29.24
43450;BME280;29041;42.266;23.110;2022-10-30T14:51:05;96064.38;;;24.50;28.88
43450;BME280;29041;42.266;23.110;2022-10-30T14:54:00;96052.69;;;24.84;28.57
43450;BME280;29041;42.266;23.110;2022-10-30T14:56:51;96065.63;;;24.84;28.27
43450;BME280;29041;42.266;23.110;2022-10-30T14:59:39;96055.81;;;24.45;29.08
43450;BME280;29041;42.266;23.110;2022-10-30T15:02:35;96062.94;;;24.38;29.22
43450;BME280;29041;42.266;23.110;2022-10-30T15:05:39;96058.88;;;24.05;29.17
43450;BME280;29041;42.266;23.110;2022-10-30T15:08:43;96060.75;;;23.48;30.17